createdAt,value
2018-11-26T00:02:54.942Z,43.10
2018-11-26T00:08:58.215Z,42.40
2018-11-26T00:15:01.733Z,43.37
2018-11-26T00:21:05.637Z,42.20
2018-11-26T00:27:09.016Z,41.63
2018-11-26T00:33:12.328Z,42.53
2018-11-26T00:39:15.568Z,40.90
2018-11-26T00:45:18.784Z,39.67
2018-11-26T00:51:22.010Z,40.20
2018-11-26T00:57:25.216Z,38.57
2018-11-26T01:03:28.680Z,37.43
2018-11-26T01:09:32.076Z,37.70
2018-11-26T01:15:35.373Z,37.00
2018-11-26T01:21:38.716Z,36.57
2018-11-26T01:27:41.944Z,36.13
2018-11-26T01:33:45.429Z,35.57
2018-11-26T01:39:48.724Z,34.60
2018-11-26T01:45:52.136Z,34.73
2018-11-26T01:51:55.384Z,32.93
2018-11-26T01:57:58.636Z,32.60
2018-11-26T02:04:01.976Z,31.80
2018-11-26T02:10:08.920Z,31.17
2018-11-26T02:16:12.337Z,30.97
2018-11-26T02:22:15.537Z,30.37
2018-11-26T02:28:18.931Z,31.17
2018-11-26T02:34:22.305Z,29.37
2018-11-26T02:40:29.204Z,29.67
2018-11-26T02:46:33.053Z,30.00
2018-11-26T02:52:36.923Z,27.47
2018-11-26T02:58:40.318Z,27.47
2018-11-26T03:04:43.558Z,29.80
2018-11-26T03:10:46.999Z,27.80
2018-11-26T03:16:50.409Z,28.73
2018-11-26T03:22:53.740Z,27.90
2018-11-26T03:28:57.681Z,29.03
2018-11-26T03:35:08.415Z,27.13
2018-11-26T03:41:11.631Z,29.13
2018-11-26T03:47:14.865Z,28.17
2018-11-26T03:53:18.184Z,27.90
2018-11-26T03:59:21.388Z,27.47
2018-11-26T04:05:24.872Z,27.77
2018-11-26T04:11:28.111Z,27.43
2018-11-26T04:17:31.401Z,26.57
2018-11-26T04:23:34.819Z,27.13
2018-11-26T04:29:38.032Z,26.80
2018-11-26T04:35:41.249Z,26.97
2018-11-26T04:41:44.481Z,26.67
2018-11-26T04:47:47.835Z,26.80
2018-11-26T04:53:51.298Z,26.73
2018-11-26T04:59:54.505Z,28.80
2018-11-26T05:05:58.411Z,27.63
2018-11-26T05:12:01.933Z,26.67
2018-11-26T05:18:06.024Z,28.67
2018-11-26T05:24:09.510Z,27.63
2018-11-26T05:30:13.470Z,27.97
2018-11-26T05:36:16.988Z,27.77
2018-11-26T05:42:21.192Z,28.53
2018-11-26T05:48:23.505Z,28.63
2018-11-26T05:54:26.859Z,28.00
2018-11-26T06:00:32.863Z,28.33
2018-11-26T06:06:37.835Z,28.27
2018-11-26T06:12:41.117Z,27.47
2018-11-26T06:18:44.484Z,26.33
2018-11-26T06:24:47.964Z,26.87
2018-11-26T06:30:56.375Z,26.80
2018-11-26T06:36:59.644Z,27.33
2018-11-26T06:43:02.962Z,27.77
2018-11-26T06:49:06.418Z,28.07
2018-11-26T06:55:14.410Z,27.03
2018-11-26T07:01:17.851Z,26.53
2018-11-26T07:07:21.174Z,27.00
2018-11-26T07:13:24.488Z,26.93
2018-11-26T07:19:27.747Z,27.77
2018-11-26T07:25:31.006Z,27.07
2018-11-26T07:31:34.286Z,25.50
2018-11-26T07:37:37.558Z,27.00
2018-11-26T07:43:40.822Z,35.17
2018-11-26T07:49:44.037Z,26.97
2018-11-26T07:55:47.284Z,26.80
2018-11-26T08:01:50.807Z,25.20
2018-11-26T08:07:54.097Z,26.70
2018-11-26T08:13:57.405Z,29.17
2018-11-26T08:20:00.812Z,25.97
2018-11-26T08:26:04.353Z,26.20
2018-11-26T08:32:07.608Z,26.03
2018-11-26T08:38:16.506Z,26.33
2018-11-26T08:44:54.179Z,25.67
2018-11-26T08:51:00.152Z,27.30
2018-11-26T08:57:03.432Z,25.97
2018-11-26T09:03:12.802Z,25.97
2018-11-26T09:09:16.442Z,26.37
2018-11-26T09:15:20.173Z,27.00
2018-11-26T09:21:23.427Z,26.00
2018-11-26T09:27:27.104Z,25.90
2018-11-26T09:33:30.397Z,26.50
2018-11-26T09:39:33.914Z,25.97
2018-11-26T09:45:40.376Z,26.00
2018-11-26T09:51:42.329Z,25.23
2018-11-26T09:57:45.124Z,25.97
2018-11-26T10:03:48.383Z,25.40
2018-11-26T10:09:52.024Z,26.30
2018-11-26T10:15:55.348Z,24.73
2018-11-26T10:21:58.624Z,25.63
2018-11-26T10:28:01.935Z,25.00
2018-11-26T10:34:05.238Z,25.20
2018-11-26T10:40:24.196Z,25.17
2018-11-26T10:46:27.564Z,25.40
2018-11-26T10:52:31.807Z,26.87
2018-11-26T10:58:35.410Z,25.47
2018-11-26T11:04:38.665Z,27.07
2018-11-26T11:10:42.059Z,26.87
2018-11-26T11:16:45.469Z,26.33
2018-11-26T11:22:49.150Z,26.00
2018-11-26T11:28:52.829Z,26.63
2018-11-26T11:34:56.166Z,25.97
2018-11-26T11:40:59.886Z,26.63
2018-11-26T11:47:03.319Z,25.87
2018-11-26T11:53:06.697Z,26.00
2018-11-26T11:59:10.132Z,26.43
2018-11-26T12:05:15.034Z,32.43
2018-11-26T12:11:18.433Z,27.23
2018-11-26T12:17:21.912Z,25.77
2018-11-26T12:23:25.556Z,27.77
2018-11-26T12:29:29.109Z,27.93
2018-11-26T12:35:32.538Z,27.20
2018-11-26T12:41:36.104Z,27.70
2018-11-26T12:47:39.471Z,28.00
2018-11-26T12:53:43.080Z,29.13
2018-11-26T12:59:46.647Z,27.37
2018-11-26T13:05:49.974Z,28.80
2018-11-26T13:11:53.469Z,28.97
2018-11-26T13:17:56.791Z,28.30
2018-11-26T13:24:00.076Z,29.20
2018-11-26T13:30:06.925Z,29.47
2018-11-26T13:36:10.438Z,29.10
2018-11-26T13:42:13.855Z,31.83
2018-11-26T13:48:18.530Z,33.37
2018-11-26T13:54:21.913Z,34.20
2018-11-26T14:00:25.350Z,35.40
2018-11-26T14:06:28.750Z,35.07
2018-11-26T14:12:32.695Z,34.87
2018-11-26T14:18:36.151Z,32.90
2018-11-26T14:24:46.273Z,33.53
2018-11-26T14:30:49.825Z,35.53
2018-11-26T14:36:53.169Z,33.67
2018-11-26T14:42:56.728Z,32.83
2018-11-26T14:48:59.991Z,32.37
2018-11-26T14:55:03.722Z,32.20
2018-11-26T15:01:07.015Z,33.03
2018-11-26T15:07:10.451Z,32.23
2018-11-26T15:13:13.904Z,32.30
2018-11-26T15:19:17.474Z,33.00
2018-11-26T15:25:24.440Z,32.93
2018-11-26T15:31:27.941Z,32.73
2018-11-26T15:37:31.272Z,33.23
2018-11-26T15:43:34.822Z,32.60
2018-11-26T15:49:38.122Z,34.20
2018-11-26T15:55:41.789Z,34.97
2018-11-26T16:01:45.677Z,35.20
2018-11-26T16:07:50.029Z,34.60
2018-11-26T16:13:53.324Z,35.20
2018-11-26T16:19:57.004Z,36.17
2018-11-26T16:26:00.279Z,35.13
2018-11-26T16:32:03.742Z,33.07
2018-11-26T16:38:08.796Z,34.53
2018-11-26T16:44:12.564Z,33.10
2018-11-26T16:50:17.685Z,32.93
2018-11-26T16:56:21.039Z,34.07
2018-11-26T17:02:24.422Z,34.23
2018-11-26T17:08:27.782Z,33.90
2018-11-26T17:14:31.578Z,34.10
2018-11-26T17:20:36.608Z,40.17
2018-11-26T17:26:39.957Z,33.87
2018-11-26T17:32:45.135Z,33.60
2018-11-26T17:38:48.729Z,31.60
2018-11-26T17:44:52.041Z,32.40
2018-11-26T17:50:55.453Z,32.83
2018-11-26T17:56:58.856Z,32.43
2018-11-26T18:03:02.586Z,31.80
2018-11-26T18:09:10.602Z,32.30
2018-11-26T18:15:15.910Z,32.47
2018-11-26T18:21:19.436Z,32.07
2018-11-26T18:27:22.823Z,33.30
2018-11-26T18:33:26.264Z,33.47
2018-11-26T18:39:30.098Z,31.97
2018-11-26T18:45:33.400Z,32.00
2018-11-26T18:51:36.906Z,32.57
2018-11-26T18:57:40.642Z,32.30
2018-11-26T19:03:43.973Z,33.17
2018-11-26T19:09:47.429Z,33.83
2018-11-26T19:15:52.931Z,33.23
2018-11-26T19:21:56.269Z,32.97
2018-11-26T19:28:00.446Z,34.53
2018-11-26T19:34:03.845Z,33.03
2018-11-26T19:40:15.116Z,34.90
2018-11-26T19:48:54.667Z,34.23
2018-11-26T19:57:30.103Z,33.47
2018-11-26T20:06:13.873Z,34.43
2018-11-26T20:12:17.393Z,31.67
2018-11-26T20:18:20.755Z,31.33
2018-11-26T20:24:24.137Z,31.80
2018-11-26T20:30:27.705Z,32.57
2018-11-26T20:36:31.087Z,31.70
2018-11-26T20:42:34.537Z,31.17
2018-11-26T20:48:37.912Z,30.10
2018-11-26T21:04:13.855Z,29.23
2018-11-26T21:10:18.181Z,28.20
2018-11-26T21:16:21.841Z,28.03
2018-11-26T21:22:25.415Z,27.37
2018-11-26T21:28:48.496Z,26.97
2018-11-26T21:34:52.068Z,27.10
2018-11-26T21:40:55.813Z,25.80
2018-11-26T21:46:59.377Z,26.40
2018-11-26T21:53:02.779Z,25.47
2018-11-26T21:59:06.253Z,25.93
2018-11-26T22:05:10.937Z,24.67
2018-11-26T22:11:14.412Z,25.53
2018-11-26T22:17:17.948Z,25.63
2018-11-26T22:23:22.048Z,25.97
2018-11-26T22:29:25.544Z,25.80
2018-11-26T22:35:29.409Z,25.23
2018-11-26T22:41:33.187Z,25.50
2018-11-26T22:47:37.139Z,26.13
2018-11-26T22:53:40.707Z,26.63
2018-11-26T22:59:44.279Z,26.53
2018-11-26T23:05:49.593Z,27.37
2018-11-26T23:11:53.071Z,27.83
2018-11-26T23:17:56.495Z,26.97
2018-11-26T23:23:59.885Z,26.17
2018-11-26T23:30:06.217Z,25.53
2018-11-26T23:36:09.908Z,27.33
2018-11-26T23:42:13.585Z,28.33
2018-11-26T23:48:17.003Z,27.23
2018-11-26T23:54:20.364Z,27.17
